Arbyrd, MO (63821)

7:11 AM CST on February 10, 2016 (GMT -0600)
Farmers Union Gin, Senath, MO | | Change Station
CLOSE
Current Station
Personal Weather Station
Location: Senath, MO
Elevation: 253 ft
Nearby Weather Stations

Elev 253 ft 36.13 °N, 90.17 °W | Updated 28 seconds ago

Clear
Clear
20.1 °F
Feels Like 20 °F
N
2.0
Wind Variable Wind from WNW
Gusts 2.5 mph

Today
High -- | Low -- °F
--% Chance of Precip.
Yesterday
High -- | Low -- °F
Precip. -- in
Pressure 30.28 in
Visibility 10.0 miles
Clouds Clear
Windchill 20 °F
Dew Point 4 °F
Humidity 48%
Rainfall 0.00 in
Snow Depth Not available.
6:53 AM 5:36 PM
Waxing Crescent, 5% visible
METAR KHKA 101253Z AUTO 30007KT 10SM CLR M06/M12 A3027 RMK AO2 SLP254 T10611122
Pressure 30.28 in
Visibility 10.0 miles
Clouds Clear
Windchill 20 °F
Dew Point 4 °F
Humidity 48%
Rainfall 0.00 in
Snow Depth Not available.
6:53 AM 5:36 PM
Waxing Crescent, 5% visible
METAR KHKA 101253Z AUTO 30007KT 10SM CLR M06/M12 A3027 RMK AO2 SLP254 T10611122

10-Day Weather Forecast

Almanac

Astronomy

Feb. 10, 2016 Rise Set
Actual Time
Civil Twilight
Nautical Twilight
Astronomical Twilight
Moon
Length of Visible Light
Length of Day
Tomorrow will be .
, % of the Moon is Illuminated

Today's Extremes

State Highs State Lows

Community

WunderPhotos

Upload Photos

1,891,839 photos uploaded!

WunderBlog® & News

Nearby

Air Quality

  Air Quality AQ Index Pollutant
Not available.

Snow Depth

Station Depth Elevation

Earthquake Activity

City Distance Mag. Time & Date
Minimum magnitude displayed is 2.5.

Coastal Water Temperatures

Place Temperature

Stations

Nearby Weather Stations

Station Location Temp. Windchill Dew Point Humidity Wind Precip. Elev Updated Type
                   

Watches & Warnings

There are currently no watches in effect.